Flugplatz Mühlhausen

Für EDEQ sind keine METAR/TAF Berichte vorhanden.
Es werden die Flugwettermeldungen vom Flugplatz Erfurt in 38 km Entfernung angezeigt.

Bericht für EDDE

vom 15.10. um 03:50 UTC

Wind 7 kt aus 190°

Sichtweite 10 km oder mehr

gute Sicht, keine Wolken < 5000 ft, keine CB, keine Wettererscheinungen (CAVOK)

Temperatur 13.0°C

Taupunkt 10.0°C

Luftfeuchtigkeit 82%

Luftdruck 1009 hPa

keine wesentliche Wetteränderung innerhalb den nächsten 2 Stunden zu erwarten

EDDE 150350Z 19007KT CAVOK 13/10 Q1009 NOSIG

Prognose für EDDE

vom 14.10. um 00:00 UTC

Zwischen 00:00 UTC und 00:00 UTC

Wind 7 kt aus 200°

Sichtweite 10 km oder mehr

keine signifikanten Wettererscheinungen

keine Wolken


Zwischen 00:00 und 00:00 UTC übergehend zu

variable Windrichtung mit 3 kt

Sichtweite 10 km oder mehr

keine signifikanten Wettererscheinungen

keine Wolken


Zwischen 00:00 und 00:00 UTC übergehend zu

Wind 12 kt aus 250°

Sichtweite 10 km oder mehr

keine signifikanten Wettererscheinungen

keine Wolken

TAF EDDE 142300Z 1500/1524 20007KT CAVOK BECMG 1506/1509 VRB03KT BECMG 1518/1520 25012KT
Impressum